Airports

 

 

Airport Name Latest METAR Visual Conditions
Atlantic City Int. (ACY) KACY 251854Z 05016G25KT 10SM SCT033 SCT040 BKN060 24/14 A3018 RMK AO2 PK WND 08026/1839 SLP220 T02390144 VFR
Baltimore International Airport (BWI) KBWI 251854Z 07010G17KT 10SM SCT046 BKN160 26/13 A3018 RMK AO2 SLP220 T02610128 VFR
Washington National Airport (DCA) KDCA 251852Z 06009KT 030V090 10SM BKN048 BKN075 25/14 A3018 RMK AO2 SLP220 T02500139 VFR
Dulles International Airport (IAD) KIAD 251852Z VRB04KT 10SM SCT055 BKN070 24/12 A3018 RMK AO2 SLP219 T02440117 $ VFR
Norfolk International Airport (ORF) KORF 251851Z 05012KT 10SM FEW048 BKN060 OVC080 26/19 A3010 RMK AO2 SLP192 T02560189 VFR
Raleigh International Airport (RDU) KRDU 251851Z 05008KT 10SM FEW040 BKN050 OVC065 24/15 A3012 RMK AO2 SLP196 T02440150 VFR
Richmond International Airport (RIC) KRIC 251854Z 07010KT 10SM SCT037 BKN065 26/15 A3013 RMK AO2 SLP207 T02560150 VFR
Roanoke Regional Airport (ROA) KROA 251854Z 11010KT 10SM FEW047 BKN060 23/12 A3019 RMK AO2 SLP214 T02330122 VFR